DLH714 EDDM-RJTT
Flight info
| Callsign | DLH714 |
|---|---|
| Flight time | N/A |
| Altitude | 35000 |
| Route | KIRDI3S KIRDI DCT BUWOQ DCT OBFEZ DCT STEIN DCT TEGRI DCT LUGEB DCT UDROS UM859 KARDE UL851 TBN UM11 REBLO/N0496F370 M11 MATAL T916 BALUN/K0915F370 T916 PIGAL M610 BASPI/K0896F390 M610 RULAD/K0893S1190 A343 POSOT B215 FKG W188 LIKMI W270 DKO W69 HUR B339 LADIX/K0907S1250 W34 VAPGU W100 ORAVA W201 UNSEK A326 DONVO G597 AGAVO/N0492F410 Y644 EGOBA Y697 LANAT Y71 XAC |
| Aircraft | A359/H-SADE2E3GHIJ1J2J3J4J5M1P2RWXYZ/LB1D1 |
Departure
| Time | N/A |
|---|---|
| Airport | Munich Airport (EDDM) |
Arrival
| Time | 2026-05-08 06:51 |
|---|---|
| Airport | Tokyo Haneda International Airport (RJTT) |
| Time | Latitude | Longitude | Altitude | Speed | Heading |
|---|---|---|---|---|---|
| 2026-05-08 06:16 | 34.83389 | 136.92910 | 38776 ft | 559 kts | 108° |
| 2026-05-08 06:17 | 34.82001 | 137.02261 | 38774 ft | 563 kts | 103° |
| 2026-05-08 06:17 | 34.81049 | 137.11691 | 38781 ft | 563 kts | 102° |
| 2026-05-08 06:18 | 34.80108 | 137.21138 | 38782 ft | 562 kts | 103° |
| 2026-05-08 06:18 | 34.79087 | 137.30532 | 38780 ft | 561 kts | 103° |
| 2026-05-08 06:19 | 34.78016 | 137.39952 | 38780 ft | 561 kts | 103° |
| 2026-05-08 06:19 | 34.76931 | 137.49369 | 38778 ft | 561 kts | 103° |
| 2026-05-08 06:20 | 34.75851 | 137.58725 | 38780 ft | 561 kts | 103° |
| 2026-05-08 06:20 | 34.74757 | 137.68154 | 38777 ft | 560 kts | 103° |
| 2026-05-08 06:21 | 34.73790 | 137.77512 | 38581 ft | 561 kts | 101° |
| 2026-05-08 06:21 | 34.73361 | 137.82228 | 38324 ft | 555 kts | 101° |
| 2026-05-08 06:21 | 34.72947 | 137.86864 | 37897 ft | 550 kts | 101° |
| 2026-05-08 06:22 | 34.72524 | 137.91503 | 37209 ft | 551 kts | 101° |
| 2026-05-08 06:22 | 34.72095 | 137.96087 | 36533 ft | 552 kts | 101° |
| 2026-05-08 06:22 | 34.71653 | 138.00743 | 35845 ft | 553 kts | 101° |
| 2026-05-08 06:22 | 34.71481 | 138.05425 | 35162 ft | 556 kts | 94° |
| 2026-05-08 06:23 | 34.71452 | 138.10135 | 34395 ft | 558 kts | 93° |
| 2026-05-08 06:23 | 34.71451 | 138.14871 | 33588 ft | 561 kts | 93° |
| 2026-05-08 06:23 | 34.71466 | 138.19576 | 32768 ft | 563 kts | 93° |
| 2026-05-08 06:23 | 34.71487 | 138.24360 | 31921 ft | 565 kts | 93° |
| 2026-05-08 06:24 | 34.71508 | 138.29150 | 31052 ft | 566 kts | 93° |
| 2026-05-08 06:24 | 34.71526 | 138.33947 | 30147 ft | 568 kts | 94° |
| 2026-05-08 06:24 | 34.71540 | 138.38698 | 29227 ft | 569 kts | 94° |
| 2026-05-08 06:24 | 34.71553 | 138.43512 | 28490 ft | 566 kts | 94° |
| 2026-05-08 06:25 | 34.71562 | 138.48287 | 27852 ft | 560 kts | 94° |
| 2026-05-08 06:25 | 34.71567 | 138.53003 | 27210 ft | 556 kts | 94° |
| 2026-05-08 06:25 | 34.71569 | 138.57690 | 26559 ft | 551 kts | 94° |
| 2026-05-08 06:25 | 34.71568 | 138.62287 | 25923 ft | 547 kts | 94° |
| 2026-05-08 06:26 | 34.71566 | 138.66888 | 25288 ft | 542 kts | 94° |
| 2026-05-08 06:26 | 34.71562 | 138.71467 | 24650 ft | 537 kts | 94° |
| 2026-05-08 06:26 | 34.71557 | 138.75998 | 24025 ft | 532 kts | 93° |
| 2026-05-08 06:26 | 34.71552 | 138.80491 | 23401 ft | 527 kts | 94° |
| 2026-05-08 06:27 | 34.71548 | 138.84924 | 22804 ft | 521 kts | 94° |
| 2026-05-08 06:27 | 34.71533 | 138.89254 | 22195 ft | 515 kts | 94° |
| 2026-05-08 06:27 | 34.71527 | 138.93593 | 21602 ft | 510 kts | 94° |
| 2026-05-08 06:27 | 34.71511 | 138.97884 | 20996 ft | 505 kts | 94° |
| 2026-05-08 06:28 | 34.71487 | 139.02146 | 20384 ft | 500 kts | 95° |
| 2026-05-08 06:28 | 34.71459 | 139.06295 | 19789 ft | 495 kts | 95° |
| 2026-05-08 06:28 | 34.71434 | 139.10476 | 19180 ft | 490 kts | 95° |
| 2026-05-08 06:28 | 34.71409 | 139.14602 | 18576 ft | 485 kts | 95° |
| 2026-05-08 06:29 | 34.71384 | 139.18689 | 17967 ft | 480 kts | 95° |
| 2026-05-08 06:29 | 34.71358 | 139.22729 | 17359 ft | 474 kts | 95° |
| 2026-05-08 06:29 | 34.71332 | 139.26677 | 16762 ft | 469 kts | 95° |
| 2026-05-08 06:29 | 34.71304 | 139.30638 | 16155 ft | 464 kts | 95° |
| 2026-05-08 06:30 | 34.71277 | 139.34509 | 15543 ft | 460 kts | 95° |
| 2026-05-08 06:30 | 34.71261 | 139.38383 | 14967 ft | 456 kts | 93° |
| 2026-05-08 06:30 | 34.71746 | 139.42153 | 14797 ft | 448 kts | 74° |
| 2026-05-08 06:30 | 34.73015 | 139.45541 | 14608 ft | 433 kts | 62° |
| 2026-05-08 06:31 | 34.74476 | 139.48664 | 14522 ft | 415 kts | 61° |
| 2026-05-08 06:31 | 34.75871 | 139.51634 | 14347 ft | 402 kts | 61° |
| 2026-05-08 06:31 | 34.77230 | 139.54558 | 14170 ft | 390 kts | 62° |
| 2026-05-08 06:31 | 34.78543 | 139.57406 | 14006 ft | 378 kts | 62° |
| 2026-05-08 06:32 | 34.79806 | 139.60156 | 13827 ft | 366 kts | 62° |
| 2026-05-08 06:32 | 34.81013 | 139.62792 | 13678 ft | 355 kts | 62° |
| 2026-05-08 06:32 | 34.82201 | 139.65394 | 13432 ft | 348 kts | 62° |
| 2026-05-08 06:32 | 34.83443 | 139.67877 | 13286 ft | 338 kts | 52° |
| 2026-05-08 06:33 | 34.85101 | 139.69886 | 13217 ft | 335 kts | 34° |
| 2026-05-08 06:33 | 34.87022 | 139.71495 | 12969 ft | 333 kts | 28° |
| 2026-05-08 06:33 | 34.88985 | 139.72985 | 12715 ft | 331 kts | 27° |
| 2026-05-08 06:33 | 34.90951 | 139.74444 | 12465 ft | 329 kts | 27° |
| 2026-05-08 06:34 | 34.92910 | 139.75888 | 12214 ft | 328 kts | 27° |
| 2026-05-08 06:34 | 34.94837 | 139.77304 | 11960 ft | 325 kts | 27° |
| 2026-05-08 06:34 | 34.96774 | 139.78726 | 11711 ft | 324 kts | 27° |
| 2026-05-08 06:34 | 34.98706 | 139.80150 | 11461 ft | 323 kts | 27° |
| 2026-05-08 06:35 | 35.00634 | 139.81563 | 11218 ft | 322 kts | 27° |
| 2026-05-08 06:35 | 35.02526 | 139.82950 | 10964 ft | 319 kts | 27° |
| 2026-05-08 06:35 | 35.04429 | 139.84347 | 10728 ft | 317 kts | 28° |
| 2026-05-08 06:35 | 35.06195 | 139.85641 | 10505 ft | 315 kts | 27° |
| 2026-05-08 06:36 | 35.07513 | 139.86605 | 10326 ft | 314 kts | 28° |
| 2026-05-08 06:36 | 35.09381 | 139.87975 | 10082 ft | 312 kts | 28° |
| 2026-05-08 06:36 | 35.11215 | 139.89330 | 9832 ft | 311 kts | 28° |
| 2026-05-08 06:36 | 35.13066 | 139.90699 | 9586 ft | 309 kts | 28° |
| 2026-05-08 06:37 | 35.14910 | 139.92053 | 9342 ft | 307 kts | 28° |
| 2026-05-08 06:37 | 35.16740 | 139.93401 | 9080 ft | 305 kts | 28° |
| 2026-05-08 06:37 | 35.18532 | 139.94733 | 8822 ft | 303 kts | 28° |
| 2026-05-08 06:37 | 35.20333 | 139.96064 | 8604 ft | 301 kts | 28° |
| 2026-05-08 06:38 | 35.22132 | 139.97390 | 8366 ft | 300 kts | 28° |
| 2026-05-08 06:38 | 35.23924 | 139.98714 | 8227 ft | 299 kts | 28° |
| 2026-05-08 06:38 | 35.25684 | 140.00011 | 8101 ft | 299 kts | 28° |
| 2026-05-08 06:38 | 35.27332 | 140.01228 | 7991 ft | 299 kts | 28° |
| 2026-05-08 06:39 | 35.29124 | 140.02552 | 7862 ft | 301 kts | 28° |
| 2026-05-08 06:39 | 35.30892 | 140.03865 | 7731 ft | 299 kts | 28° |
| 2026-05-08 06:39 | 35.32670 | 140.05182 | 7616 ft | 298 kts | 28° |
| 2026-05-08 06:39 | 35.34440 | 140.06492 | 7506 ft | 298 kts | 28° |
| 2026-05-08 06:40 | 35.36218 | 140.07811 | 7322 ft | 297 kts | 28° |
| 2026-05-08 06:40 | 35.37988 | 140.09118 | 7089 ft | 295 kts | 28° |
| 2026-05-08 06:40 | 35.39726 | 140.10410 | 7011 ft | 295 kts | 28° |
| 2026-05-08 06:40 | 35.41499 | 140.11734 | 7013 ft | 294 kts | 28° |
| 2026-05-08 06:41 | 35.43235 | 140.13018 | 7011 ft | 294 kts | 28° |
| 2026-05-08 06:41 | 35.44993 | 140.14322 | 7011 ft | 295 kts | 29° |
| 2026-05-08 06:41 | 35.46630 | 140.15541 | 7014 ft | 295 kts | 29° |
| 2026-05-08 06:41 | 35.48385 | 140.16845 | 7011 ft | 295 kts | 29° |
| 2026-05-08 06:42 | 35.50141 | 140.18150 | 7016 ft | 295 kts | 30° |
| 2026-05-08 06:42 | 35.51912 | 140.19397 | 7003 ft | 293 kts | 22° |
| 2026-05-08 06:42 | 35.53857 | 140.19974 | 6998 ft | 284 kts | 354° |
| 2026-05-08 06:42 | 35.55631 | 140.19670 | 6754 ft | 275 kts | 339° |
| 2026-05-08 06:43 | 35.57416 | 140.19017 | 6498 ft | 264 kts | 331° |
| 2026-05-08 06:43 | 35.58854 | 140.17822 | 6325 ft | 237 kts | 302° |
| 2026-05-08 06:43 | 35.59750 | 140.16217 | 6207 ft | 220 kts | 292° |
| 2026-05-08 06:43 | 35.60388 | 140.14584 | 6046 ft | 202 kts | 276° |
| 2026-05-08 06:44 | 35.60523 | 140.12956 | 5860 ft | 190 kts | 263° |
| 2026-05-08 06:44 | 35.60506 | 140.11330 | 5646 ft | 190 kts | 263° |
| 2026-05-08 06:44 | 35.60492 | 140.09702 | 5390 ft | 190 kts | 263° |
| 2026-05-08 06:44 | 35.60485 | 140.08120 | 5256 ft | 179 kts | 263° |
| 2026-05-08 06:45 | 35.60484 | 140.06624 | 5026 ft | 175 kts | 263° |
| 2026-05-08 06:45 | 35.60482 | 140.05128 | 4786 ft | 174 kts | 263° |
| 2026-05-08 06:45 | 35.60479 | 140.03635 | 4514 ft | 174 kts | 262° |
| 2026-05-08 06:45 | 35.60475 | 140.02153 | 4254 ft | 173 kts | 262° |
| 2026-05-08 06:46 | 35.60468 | 140.00678 | 4002 ft | 173 kts | 262° |
| 2026-05-08 06:46 | 35.60459 | 139.99199 | 3739 ft | 172 kts | 262° |
| 2026-05-08 06:46 | 35.60452 | 139.97746 | 3475 ft | 172 kts | 262° |
| 2026-05-08 06:46 | 35.60448 | 139.96304 | 3240 ft | 165 kts | 261° |
| 2026-05-08 06:47 | 35.60444 | 139.94928 | 2990 ft | 157 kts | 261° |
| 2026-05-08 06:47 | 35.60437 | 139.93603 | 2759 ft | 152 kts | 262° |
| 2026-05-08 06:47 | 35.60430 | 139.92315 | 2532 ft | 153 kts | 261° |
| 2026-05-08 06:47 | 35.60422 | 139.91006 | 2304 ft | 154 kts | 262° |
| 2026-05-08 06:48 | 35.60416 | 139.89669 | 2066 ft | 157 kts | 262° |
| 2026-05-08 06:48 | 35.60411 | 139.88335 | 1827 ft | 154 kts | 263° |
| 2026-05-08 06:48 | 35.60407 | 139.87064 | 1598 ft | 144 kts | 263° |
| 2026-05-08 06:48 | 35.60401 | 139.85858 | 1383 ft | 139 kts | 264° |
| 2026-05-08 06:49 | 35.60398 | 139.84691 | 1204 ft | 138 kts | 266° |
| 2026-05-08 06:49 | 35.60388 | 139.83496 | 1047 ft | 141 kts | 263° |
| 2026-05-08 06:49 | 35.60298 | 139.82310 | 897 ft | 137 kts | 251° |
| 2026-05-08 06:49 | 35.59993 | 139.81198 | 794 ft | 137 kts | 242° |
| 2026-05-08 06:50 | 35.59476 | 139.80215 | 701 ft | 135 kts | 228° |
| 2026-05-08 06:50 | 35.58800 | 139.79437 | 559 ft | 135 kts | 214° |
| 2026-05-08 06:50 | 35.58026 | 139.78797 | 355 ft | 132 kts | 212° |
| 2026-05-08 06:50 | 35.57268 | 139.78152 | 185 ft | 135 kts | 212° |
| 2026-05-08 06:51 | 35.56496 | 139.77493 | 42 ft | 133 kts | 217° |
| 2026-05-08 06:51 | 35.56036 | 139.77099 | 31 ft | 101 kts | 214° |
| 2026-05-08 06:51 | 35.55593 | 139.76722 | 31 ft | 34 kts | 212° |
| 2026-05-08 06:51 | 35.55398 | 139.76633 | 31 ft | 17 kts | 190° |
| 2026-05-08 06:52 | 35.55347 | 139.76623 | 30 ft | 8 kts | 188° |
| 2026-05-08 06:52 | 35.55285 | 139.76610 | 29 ft | 10 kts | 189° |
| 2026-05-08 06:52 | 35.55213 | 139.76598 | 29 ft | 11 kts | 184° |
| 2026-05-08 06:52 | 35.55146 | 139.76632 | 29 ft | 11 kts | 122° |
| 2026-05-08 06:53 | 35.55156 | 139.76723 | 29 ft | 12 kts | 62° |
| 2026-05-08 06:53 | 35.55204 | 139.76819 | 29 ft | 15 kts | 59° |
| 2026-05-08 06:53 | 35.55259 | 139.76935 | 29 ft | 17 kts | 59° |
| 2026-05-08 06:53 | 35.55317 | 139.77060 | 29 ft | 14 kts | 60° |
| 2026-05-08 06:54 | 35.55302 | 139.77143 | 29 ft | 10 kts | 135° |
| 2026-05-08 06:54 | 35.55228 | 139.77197 | 29 ft | 16 kts | 150° |
| 2026-05-08 06:54 | 35.55122 | 139.77274 | 28 ft | 18 kts | 150° |
| 2026-05-08 06:54 | 35.55006 | 139.77354 | 29 ft | 20 kts | 150° |
| 2026-05-08 06:55 | 35.54910 | 139.77414 | 29 ft | 12 kts | 174° |
| 2026-05-08 06:55 | 35.54851 | 139.77349 | 29 ft | 13 kts | 240° |
| 2026-05-08 06:55 | 35.54804 | 139.77248 | 29 ft | 15 kts | 240° |
| 2026-05-08 06:55 | 35.54750 | 139.77134 | 29 ft | 16 kts | 238° |
| 2026-05-08 06:56 | 35.54657 | 139.77102 | 29 ft | 15 kts | 157° |
| 2026-05-08 06:56 | 35.54560 | 139.77171 | 29 ft | 17 kts | 149° |
| 2026-05-08 06:56 | 35.54453 | 139.77247 | 29 ft | 17 kts | 151° |
| 2026-05-08 06:56 | 35.54401 | 139.77274 | 29 ft | 6 kts | 181° |
| 2026-05-08 06:57 | 35.54373 | 139.77243 | 29 ft | 6 kts | 243° |
| 2026-05-08 06:57 | 35.54353 | 139.77195 | 29 ft | 2 kts | 240° |
| 2026-05-08 06:57 | 35.54352 | 139.77193 | 29 ft | 1 kts | 240° |
| 2026-05-08 06:57 | 35.54350 | 139.77190 | 29 ft | 0 kts | 240° |